Ship Status Report: callsign CFN5364

sailwx.info

Track history (hours):
 
Tides and Currents Weather Stations Pressure Air Temp Water Temp Dewpoint Dewpoint Depression Visibility Wind Speed Wind Dir Waves Ship Positions

Callsign CFN5364 (name unknown)

Last reported at 2014-Aug-21 08:33 UTC. Time now 2014-Sep-01 18:39 UTC.
Position N 54°18' W 130°21'.
Warning: this ship's position is 11 days out of date.

Date/timePositionNaut miles runAvg speedWind from/ knotsBaromVisibWave heightAir tempDewpointWater temp
2014-Aug-21 08:33N 54°18' W 130°21'0 0.0
2014-Aug-21 07:32N 54°18' W 130°21'0 0.0
2014-Aug-21 06:32N 54°18' W 130°21'18814.5
2014-Aug-20 17:32N 51°33' W 127°52'2119.3
2014-Aug-20 16:27N 51°12' W 127°52'1719.0
2014-Aug-20 15:33N 50°57' W 127°42'1615.6
2014-Aug-20 14:33N 50°44' W 127°27'4 0.6
2014-Aug-20 07:34N 50°48' W 127°27'1918.8
2014-Aug-20 06:33N 51°02' W 127°47'1919.2
2014-Aug-20 05:32N 51°21' W 127°52'19913.3
2014-Aug-19 14:33N 54°18' W 130°21'0 0.0
2014-Aug-19 13:31N 54°18' W 130°21'0 0.0
2014-Aug-19 12:32N 54°18' W 130°21'0 0.0
2014-Aug-19 11:33N 54°18' W 130°21'0 0.0
2014-Aug-19 10:33N 54°18' W 130°21'0 0.0
2014-Aug-19 09:33N 54°18' W 130°21'0 0.0
2014-Aug-19 08:26N 54°18' W 130°21'0 0.0
2014-Aug-19 07:32N 54°18' W 130°21'0 0.0
2014-Aug-19 06:31N 54°18' W 130°21'17314.2
2014-Aug-18 18:22N 51°49' W 127°56'1619.3
2014-Aug-18 17:32N 51°33' W 127°52'48 4.0
2014-Aug-18 05:34N 50°48' W 127°27'1919.1
2014-Aug-18 04:33N 51°02' W 127°47'2019.5
2014-Aug-18 03:33N 51°21' W 127°52'19815.3
2014-Aug-17 14:33N 54°18' W 130°22'0 0.4
2014-Aug-17 13:32N 54°18' W 130°21'0 0.4
2014-Aug-17 12:33N 54°18' W 130°22'0 0.2
2014-Aug-17 11:33N 54°18' W 130°21'0 0.3
2014-Aug-17 10:32N 54°18' W 130°21'0 0.0
2014-Aug-17 09:31N 54°18' W 130°21'  
Track history (hours):
 
Tides and Currents Weather Stations Pressure Air Temp Water Temp Dewpoint Dewpoint Depression Visibility Wind Speed Wind Dir Waves Ship Positions

Callsign CFN5364 (name unknown)

Last reported at 2014-Aug-21 08:33 UTC. Time now 2014-Sep-01 18:39 UTC.
Position N 54°18' W 130°21'.
Warning: this ship's position is 11 days out of date.

Date/timePositionNaut miles runAvg speedWind from/ knotsBaromVisibWave heightAir tempDewpointWater temp
2014-Aug-21 08:33N 54°18' W 130°21'0 0.0
2014-Aug-21 07:32N 54°18' W 130°21'0 0.0
2014-Aug-21 06:32N 54°18' W 130°21'18814.5
2014-Aug-20 17:32N 51°33' W 127°52'2119.3
2014-Aug-20 16:27N 51°12' W 127°52'1719.0
2014-Aug-20 15:33N 50°57' W 127°42'1615.6
2014-Aug-20 14:33N 50°44' W 127°27'4 0.6
2014-Aug-20 07:34N 50°48' W 127°27'1918.8
2014-Aug-20 06:33N 51°02' W 127°47'1919.2
2014-Aug-20 05:32N 51°21' W 127°52'19913.3
2014-Aug-19 14:33N 54°18' W 130°21'0 0.0
2014-Aug-19 13:31N 54°18' W 130°21'0 0.0
2014-Aug-19 12:32N 54°18' W 130°21'0 0.0
2014-Aug-19 11:33N 54°18' W 130°21'0 0.0
2014-Aug-19 10:33N 54°18' W 130°21'0 0.0
2014-Aug-19 09:33N 54°18' W 130°21'0 0.0
2014-Aug-19 08:26N 54°18' W 130°21'0 0.0
2014-Aug-19 07:32N 54°18' W 130°21'0 0.0
2014-Aug-19 06:31N 54°18' W 130°21'17314.2
2014-Aug-18 18:22N 51°49' W 127°56'1619.3
2014-Aug-18 17:32N 51°33' W 127°52'48 4.0
2014-Aug-18 05:34N 50°48' W 127°27'1919.1
2014-Aug-18 04:33N 51°02' W 127°47'2019.5
2014-Aug-18 03:33N 51°21' W 127°52'19815.3
2014-Aug-17 14:33N 54°18' W 130°22'0 0.4
2014-Aug-17 13:32N 54°18' W 130°21'0 0.4
2014-Aug-17 12:33N 54°18' W 130°22'0 0.2
2014-Aug-17 11:33N 54°18' W 130°21'0 0.3
2014-Aug-17 10:32N 54°18' W 130°21'0 0.0
2014-Aug-17 09:31N 54°18' W 130°21'  

Dump ship's entire track history